createdAt,value
2022-08-05T00:01:01.042Z,26.14
2022-08-05T00:03:30.068Z,25.98
2022-08-05T00:06:06.487Z,26.06
2022-08-05T00:08:36.135Z,25.96
2022-08-05T00:11:20.666Z,25.91
2022-08-05T00:13:44.496Z,25.91
2022-08-05T00:16:18.564Z,25.79
2022-08-05T00:18:51.468Z,25.74
2022-08-05T00:21:21.979Z,25.66
2022-08-05T00:23:53.616Z,25.67
2022-08-05T00:26:24.533Z,25.60
2022-08-05T00:28:55.121Z,25.52
2022-08-05T00:31:54.009Z,25.48
2022-08-05T00:34:54.293Z,25.56
2022-08-05T00:37:12.424Z,25.49
2022-08-05T00:39:03.337Z,25.43
2022-08-05T00:41:52.014Z,25.42
2022-08-05T00:44:07.507Z,25.33
2022-08-05T00:46:43.431Z,25.29
2022-08-05T00:49:10.755Z,25.26
2022-08-05T00:51:50.473Z,25.25
2022-08-05T00:54:16.784Z,25.42
2022-08-05T00:56:51.766Z,25.32
2022-08-05T00:59:20.411Z,25.33
2022-08-05T01:01:51.016Z,25.51
2022-08-05T01:04:26.711Z,25.23
2022-08-05T01:06:55.072Z,25.06
2022-08-05T01:09:25.983Z,24.76
2022-08-05T01:12:09.269Z,24.58
2022-08-05T01:14:50.944Z,24.47
2022-08-05T01:17:53.516Z,24.25
2022-08-05T01:20:41.932Z,24.20
2022-08-05T01:23:22.949Z,24.02
2022-08-05T01:26:14.951Z,24.06
2022-08-05T01:28:51.674Z,24.03
2022-08-05T01:31:34.197Z,24.05
2022-08-05T01:34:12.141Z,23.94
2022-08-05T01:36:57.311Z,23.80
2022-08-05T01:39:45.768Z,23.97
2022-08-05T01:42:03.956Z,23.88
2022-08-05T01:44:36.885Z,23.80
2022-08-05T01:47:15.464Z,23.84
2022-08-05T01:50:00.222Z,23.67
2022-08-05T01:52:18.232Z,23.71
2022-08-05T01:54:56.942Z,23.73
2022-08-05T01:58:09.313Z,23.59
2022-08-05T02:00:06.406Z,23.66
2022-08-05T02:02:51.110Z,23.51
2022-08-05T02:05:15.586Z,23.60
2022-08-05T02:07:57.822Z,23.80
2022-08-05T02:10:20.877Z,23.54
2022-08-05T02:12:57.686Z,23.60
2022-08-05T02:15:37.974Z,23.60
2022-08-05T02:18:31.447Z,23.74
2022-08-05T02:20:54.310Z,23.53
2022-08-05T02:23:29.449Z,23.58
2022-08-05T02:26:04.645Z,23.50
2022-08-05T02:28:41.711Z,23.60
2022-08-05T02:31:16.751Z,23.38
2022-08-05T02:33:58.080Z,23.39
2022-08-05T02:36:31.385Z,23.42
2022-08-05T02:39:08.641Z,23.49
2022-08-05T02:41:57.678Z,23.41
2022-08-05T02:44:13.801Z,23.53
2022-08-05T02:46:58.909Z,23.52
2022-08-05T02:49:20.060Z,23.28
2022-08-05T02:52:02.892Z,23.48
2022-08-05T02:54:35.632Z,23.24
2022-08-05T02:57:00.728Z,23.22
2022-08-05T02:59:42.502Z,23.42
2022-08-05T03:02:07.083Z,23.30
2022-08-05T03:04:39.834Z,23.22
2022-08-05T03:07:30.822Z,23.17
2022-08-05T03:09:51.691Z,23.34
2022-08-05T03:12:32.890Z,23.28
2022-08-05T03:15:06.851Z,23.11
2022-08-05T03:17:41.445Z,23.07
2022-08-05T03:20:12.026Z,23.07
2022-08-05T03:22:50.150Z,23.32
2022-08-05T03:25:34.093Z,23.00
2022-08-05T03:28:00.255Z,23.26
2022-08-05T03:30:21.757Z,23.16
2022-08-05T03:32:54.689Z,23.06
2022-08-05T03:35:25.649Z,23.12
2022-08-05T03:38:00.312Z,23.06
2022-08-05T03:40:32.025Z,23.16
2022-08-05T03:43:59.324Z,23.11
2022-08-05T03:45:58.021Z,23.03
2022-08-05T03:48:08.995Z,23.02
2022-08-05T03:50:45.528Z,23.32
2022-08-05T03:55:53.093Z,23.19
2022-08-05T03:56:10.098Z,23.22
2022-08-05T03:58:35.218Z,23.24
2022-08-05T04:01:08.769Z,23.27
2022-08-05T04:04:08.930Z,23.30
2022-08-05T04:06:16.570Z,23.48
2022-08-05T04:08:48.580Z,23.26
2022-08-05T04:11:19.675Z,23.30
2022-08-05T04:13:53.419Z,23.17
2022-08-05T04:16:32.537Z,23.22
2022-08-05T04:18:57.979Z,23.32
2022-08-05T04:22:10.359Z,23.61
2022-08-05T04:24:08.894Z,23.82
2022-08-05T04:26:37.184Z,23.72
2022-08-05T04:29:07.783Z,23.86
2022-08-05T04:31:39.419Z,23.97
2022-08-05T04:34:19.201Z,23.97
2022-08-05T04:36:49.409Z,23.91
2022-08-05T04:39:14.321Z,23.88
2022-08-05T04:41:48.187Z,24.02
2022-08-05T04:44:29.059Z,24.09
2022-08-05T04:46:52.791Z,24.18
2022-08-05T04:49:24.777Z,24.15
2022-08-05T04:52:00.549Z,24.06
2022-08-05T04:54:29.386Z,24.46
2022-08-05T04:56:59.880Z,24.40
2022-08-05T04:59:38.574Z,24.40
2022-08-05T05:02:07.505Z,24.35
2022-08-05T05:04:35.518Z,24.35
2022-08-05T05:07:09.436Z,24.36
2022-08-05T05:09:39.723Z,25.13
2022-08-05T05:12:11.595Z,25.59
2022-08-05T05:14:49.520Z,25.63
2022-08-05T05:17:14.473Z,25.44
2022-08-05T05:19:47.366Z,25.09
2022-08-05T05:22:22.628Z,25.18
2022-08-05T05:24:57.983Z,25.22
2022-08-05T05:27:22.248Z,25.10
2022-08-05T05:30:04.606Z,25.42
2022-08-05T05:32:27.462Z,25.17
2022-08-05T05:34:59.997Z,24.91
2022-08-05T05:37:58.873Z,25.08
2022-08-05T05:40:07.859Z,25.08
2022-08-05T05:42:38.407Z,25.24
2022-08-05T05:45:11.012Z,25.05
2022-08-05T05:48:05.737Z,25.08
2022-08-05T05:50:20.152Z,24.84
2022-08-05T05:52:50.842Z,24.86
2022-08-05T05:55:21.327Z,24.90
2022-08-05T05:57:53.388Z,24.72
2022-08-05T06:00:31.376Z,24.60
2022-08-05T06:02:56.555Z,24.58
2022-08-05T06:05:26.988Z,24.55
2022-08-05T06:07:57.992Z,24.54
2022-08-05T06:10:29.606Z,24.52
2022-08-05T06:13:02.045Z,24.58
2022-08-05T06:16:28.241Z,24.66
2022-08-05T06:18:05.910Z,24.61
2022-08-05T06:20:36.660Z,24.61
2022-08-05T06:23:08.106Z,24.75
2022-08-05T06:26:12.789Z,25.29
2022-08-05T06:28:21.225Z,26.27
2022-08-05T06:30:42.802Z,26.34
2022-08-05T06:33:18.993Z,26.64
2022-08-05T06:36:03.874Z,27.12
2022-08-05T06:38:17.548Z,26.78
2022-08-05T06:40:49.944Z,26.54
2022-08-05T06:43:58.874Z,26.06
2022-08-05T06:46:06.582Z,26.33
2022-08-05T06:48:54.627Z,26.27
2022-08-05T06:50:57.787Z,25.80
2022-08-05T06:53:29.255Z,25.60
2022-08-05T06:56:02.971Z,25.45
2022-08-05T06:58:36.603Z,25.24
2022-08-05T07:01:07.640Z,25.16
2022-08-05T07:03:38.134Z,25.85
2022-08-05T07:06:13.882Z,26.08
2022-08-05T07:08:42.067Z,26.64
2022-08-05T07:11:15.473Z,26.14
2022-08-05T07:14:03.202Z,26.46
2022-08-05T07:18:01.082Z,25.85
2022-08-05T07:19:15.481Z,26.02
2022-08-05T07:21:59.324Z,25.89
2022-08-05T07:24:53.732Z,25.68
2022-08-05T07:27:57.134Z,25.80
2022-08-05T07:30:24.544Z,25.89
2022-08-05T07:32:38.637Z,25.71
2022-08-05T07:36:03.457Z,25.74
2022-08-05T07:37:43.027Z,25.84
2022-08-05T07:40:32.093Z,25.92
2022-08-05T07:42:47.889Z,25.60
2022-08-05T07:45:19.072Z,25.83
2022-08-05T07:47:51.507Z,25.54
2022-08-05T07:50:26.763Z,24.94
2022-08-05T07:52:58.908Z,24.76
2022-08-05T07:56:05.689Z,24.62
2022-08-05T07:58:06.729Z,24.59
2022-08-05T08:00:38.001Z,24.45
2022-08-05T08:03:15.844Z,24.47
2022-08-05T08:05:49.708Z,24.34
2022-08-05T08:08:20.027Z,24.36
2022-08-05T08:10:50.648Z,24.30
2022-08-05T08:13:28.955Z,24.34
2022-08-05T08:16:34.774Z,24.60
2022-08-05T08:18:28.421Z,24.44
2022-08-05T08:21:02.364Z,24.10
2022-08-05T08:24:02.637Z,24.23
2022-08-05T08:26:05.115Z,24.54
2022-08-05T08:28:55.210Z,24.50
2022-08-05T08:31:09.489Z,24.74
2022-08-05T08:33:41.710Z,25.07
2022-08-05T08:36:39.188Z,25.39
2022-08-05T08:38:53.410Z,25.17
2022-08-05T08:41:18.163Z,25.11
2022-08-05T08:45:19.669Z,24.97
2022-08-05T08:46:25.125Z,24.97
2022-08-05T08:49:07.487Z,24.90
2022-08-05T08:52:02.899Z,24.78
2022-08-05T08:54:06.183Z,24.85
2022-08-05T08:56:38.446Z,24.89
2022-08-05T08:59:14.839Z,24.80
2022-08-05T09:01:46.192Z,24.51
2022-08-05T09:04:18.474Z,24.28
2022-08-05T09:06:50.225Z,24.31
2022-08-05T09:09:21.846Z,24.00
2022-08-05T09:12:01.254Z,24.18
2022-08-05T09:14:58.880Z,24.38
2022-08-05T09:17:01.428Z,24.62
2022-08-05T09:19:36.622Z,24.56
2022-08-05T09:22:22.912Z,24.48
2022-08-05T09:24:38.016Z,24.45
2022-08-05T09:27:11.673Z,24.83
2022-08-05T09:29:49.734Z,25.28
2022-08-05T09:32:51.841Z,25.68
2022-08-05T09:34:58.988Z,26.08
2022-08-05T09:38:12.594Z,25.84
2022-08-05T09:40:04.421Z,26.14
2022-08-05T09:42:43.955Z,26.08
2022-08-05T09:46:07.105Z,26.06
2022-08-05T09:47:56.197Z,26.19
2022-08-05T09:50:38.110Z,26.04
2022-08-05T09:52:59.315Z,25.41
2022-08-05T09:55:57.525Z,25.15
2022-08-05T09:58:16.411Z,24.42
2022-08-05T10:01:15.329Z,24.23
2022-08-05T10:03:51.830Z,23.30
2022-08-05T10:06:14.701Z,22.50
2022-08-05T10:08:53.966Z,22.11
2022-08-05T10:11:18.262Z,22.06
2022-08-05T10:13:49.471Z,21.86
2022-08-05T10:16:41.845Z,22.13
2022-08-05T10:19:09.377Z,22.65
2022-08-05T10:21:41.033Z,23.12
2022-08-05T10:24:14.318Z,23.20
2022-08-05T10:26:51.579Z,23.32
2022-08-05T10:29:23.850Z,23.77
2022-08-05T10:32:53.843Z,23.77
2022-08-05T10:34:30.192Z,24.20
2022-08-05T10:36:59.702Z,24.22
2022-08-05T10:40:03.551Z,24.29
2022-08-05T10:42:15.534Z,24.24
2022-08-05T10:44:48.637Z,24.51
2022-08-05T10:47:25.888Z,24.49
2022-08-05T10:50:36.292Z,24.61
2022-08-05T10:52:49.774Z,24.56
2022-08-05T10:55:19.744Z,24.71
2022-08-05T10:57:52.092Z,24.96
2022-08-05T11:00:28.041Z,24.98
2022-08-05T11:03:22.992Z,24.94
2022-08-05T11:05:46.973Z,24.71
2022-08-05T11:08:33.682Z,24.88
2022-08-05T11:11:00.898Z,25.20
2022-08-05T11:13:55.020Z,25.64
2022-08-05T11:16:47.517Z,25.91
2022-08-05T11:20:10.721Z,25.99
2022-08-05T11:22:03.942Z,26.10
2022-08-05T11:24:34.405Z,26.35
2022-08-05T11:27:51.346Z,26.13
2022-08-05T11:30:02.939Z,26.06
2022-08-05T11:32:35.231Z,26.11
2022-08-05T11:35:06.840Z,26.21
2022-08-05T11:38:29.840Z,26.38
2022-08-05T11:40:51.300Z,26.28
2022-08-05T11:44:06.692Z,26.56
2022-08-05T11:46:23.456Z,26.90
2022-08-05T11:48:30.623Z,27.12
2022-08-05T11:51:04.848Z,27.20
2022-08-05T11:53:40.768Z,26.68
2022-08-05T11:56:11.266Z,27.03
2022-08-05T11:58:53.042Z,26.75
2022-08-05T12:01:22.729Z,26.48
2022-08-05T12:03:56.358Z,26.90
2022-08-05T12:06:31.611Z,27.15
2022-08-05T12:09:04.709Z,27.21
2022-08-05T12:11:40.603Z,27.14
2022-08-05T12:14:10.246Z,26.73
2022-08-05T12:16:45.587Z,26.86
2022-08-05T12:20:25.838Z,27.01
2022-08-05T12:21:51.634Z,26.70
2022-08-05T12:24:24.573Z,27.20
2022-08-05T12:26:56.778Z,27.19
2022-08-05T12:29:38.675Z,27.35
2022-08-05T12:32:04.511Z,27.38
2022-08-05T12:34:38.049Z,27.46
2022-08-05T12:37:16.998Z,27.55
2022-08-05T12:39:48.599Z,28.12
2022-08-05T12:42:21.153Z,28.61
2022-08-05T12:44:51.570Z,28.55
2022-08-05T12:47:30.952Z,28.63
2022-08-05T12:50:15.128Z,28.62
2022-08-05T12:52:59.770Z,28.71
2022-08-05T12:55:35.277Z,28.59
2022-08-05T12:58:50.015Z,28.95
2022-08-05T13:01:59.858Z,29.03
2022-08-05T13:03:14.937Z,28.89
2022-08-05T13:05:48.381Z,28.74
2022-08-05T13:08:22.578Z,28.88
2022-08-05T13:10:52.938Z,28.65
2022-08-05T13:14:05.965Z,28.83
2022-08-05T13:15:59.085Z,29.14
2022-08-05T13:18:41.305Z,29.20
2022-08-05T13:21:12.443Z,29.50
2022-08-05T13:23:50.829Z,29.26
2022-08-05T13:26:15.025Z,29.53
2022-08-05T13:28:46.695Z,29.61
2022-08-05T13:31:17.141Z,29.78
2022-08-05T13:34:23.188Z,29.68
2022-08-05T13:36:21.329Z,29.83
2022-08-05T13:38:53.590Z,29.77
2022-08-05T13:41:25.731Z,29.33
2022-08-05T13:43:58.979Z,29.44
2022-08-05T13:46:43.742Z,29.28
2022-08-05T13:49:05.511Z,29.04
2022-08-05T13:51:40.866Z,29.24
2022-08-05T13:54:16.590Z,29.10
2022-08-05T13:56:51.578Z,28.98
2022-08-05T13:59:24.603Z,28.82
2022-08-05T14:01:56.688Z,28.85
2022-08-05T14:04:50.118Z,28.51
2022-08-05T14:07:59.706Z,28.60
2022-08-05T14:09:58.852Z,28.60
2022-08-05T14:12:32.237Z,28.61
2022-08-05T14:16:03.976Z,28.76
2022-08-05T14:17:35.662Z,28.43
2022-08-05T14:20:07.990Z,28.22
2022-08-05T14:22:38.610Z,28.22
2022-08-05T14:25:21.857Z,28.12
2022-08-05T14:27:47.319Z,28.22
2022-08-05T14:30:20.488Z,28.43
2022-08-05T14:32:48.730Z,28.17
2022-08-05T14:35:20.697Z,27.99
2022-08-05T14:37:55.385Z,27.84
2022-08-05T14:40:24.451Z,28.12
2022-08-05T14:42:55.552Z,28.16
2022-08-05T14:45:26.311Z,28.16
2022-08-05T14:48:05.295Z,27.92
2022-08-05T14:50:29.623Z,27.89
2022-08-05T14:53:01.431Z,27.58
2022-08-05T14:55:39.879Z,27.02
2022-08-05T14:58:12.196Z,26.70
2022-08-05T15:00:36.278Z,26.57
2022-08-05T15:03:09.460Z,26.18
2022-08-05T15:06:13.563Z,26.22
2022-08-05T15:08:16.035Z,26.06
2022-08-05T15:10:46.207Z,26.06
2022-08-05T15:13:16.616Z,26.00
2022-08-05T15:15:54.431Z,25.85
2022-08-05T15:18:19.450Z,25.94
2022-08-05T15:20:49.901Z,25.67
2022-08-05T15:23:21.475Z,25.54
2022-08-05T15:25:56.606Z,25.37
2022-08-05T15:28:27.363Z,25.53
2022-08-05T15:30:58.210Z,25.31
2022-08-05T15:34:04.433Z,25.24
2022-08-05T15:36:03.639Z,25.04
2022-08-05T15:38:41.793Z,25.04
2022-08-05T15:41:22.122Z,24.90
2022-08-05T15:43:45.390Z,24.91
2022-08-05T15:46:12.841Z,24.98
2022-08-05T15:48:52.918Z,24.85
2022-08-05T15:51:17.054Z,24.69
2022-08-05T15:53:50.839Z,24.83
2022-08-05T15:56:22.445Z,24.87
2022-08-05T15:58:53.502Z,25.00
2022-08-05T16:01:29.365Z,24.93
2022-08-05T16:03:57.827Z,25.00
2022-08-05T16:06:28.317Z,25.00
2022-08-05T16:08:58.757Z,24.97
2022-08-05T16:11:42.839Z,24.83
2022-08-05T16:14:04.690Z,24.88
2022-08-05T16:16:36.280Z,24.87
2022-08-05T16:19:09.865Z,24.78
2022-08-05T16:21:58.828Z,24.78
2022-08-05T16:24:40.670Z,24.50
2022-08-05T16:26:53.696Z,24.47
2022-08-05T16:29:25.663Z,24.50
2022-08-05T16:31:58.241Z,24.19
2022-08-05T16:34:29.298Z,23.97
2022-08-05T16:37:00.388Z,24.01
2022-08-05T16:40:04.688Z,23.91
2022-08-05T16:42:14.736Z,23.97
2022-08-05T16:44:35.165Z,23.85
2022-08-05T16:47:07.603Z,23.83
2022-08-05T16:49:40.779Z,23.51
2022-08-05T16:52:11.830Z,23.28
2022-08-05T16:54:44.647Z,23.13
2022-08-05T16:57:22.450Z,22.92
2022-08-05T17:00:00.338Z,22.92
2022-08-05T17:02:20.436Z,22.90
2022-08-05T17:04:50.999Z,22.90
2022-08-05T17:07:39.205Z,22.85
2022-08-05T17:09:58.201Z,22.63
2022-08-05T17:12:51.405Z,22.41
2022-08-05T17:14:57.825Z,22.09
2022-08-05T17:17:31.447Z,21.87
2022-08-05T17:20:07.489Z,21.74
2022-08-05T17:22:38.945Z,21.44
2022-08-05T17:25:33.445Z,21.32
2022-08-05T17:27:42.480Z,21.17
2022-08-05T17:30:18.780Z,21.16
2022-08-05T17:32:49.824Z,21.00
2022-08-05T17:35:20.770Z,20.78
2022-08-05T17:37:51.735Z,20.66
2022-08-05T17:40:22.894Z,20.59
2022-08-05T17:42:53.788Z,20.40
2022-08-05T17:45:29.706Z,20.33
2022-08-05T17:48:00.727Z,20.42
2022-08-05T17:50:31.158Z,20.19
2022-08-05T17:53:08.882Z,20.13
2022-08-05T17:55:40.967Z,19.83
2022-08-05T17:58:14.448Z,19.70
2022-08-05T18:00:50.829Z,19.78
2022-08-05T18:05:53.712Z,19.75
2022-08-05T18:08:24.877Z,19.72
2022-08-05T18:10:55.330Z,19.68
2022-08-05T18:13:28.507Z,19.63
2022-08-05T18:16:00.916Z,19.68
2022-08-05T18:18:34.135Z,19.66
2022-08-05T18:21:13.263Z,19.59
2022-08-05T18:23:45.861Z,19.56
2022-08-05T18:26:11.746Z,19.68
2022-08-05T18:28:43.830Z,19.72
2022-08-05T18:31:16.836Z,19.69
2022-08-05T18:33:51.456Z,19.59
2022-08-05T18:36:27.911Z,19.57
2022-08-05T18:38:53.524Z,19.67
2022-08-05T18:41:57.573Z,19.60
2022-08-05T18:44:06.568Z,19.44
2022-08-05T18:46:31.436Z,19.33
2022-08-05T18:49:19.803Z,19.44
2022-08-05T18:52:10.944Z,19.35
2022-08-05T18:54:45.912Z,19.38
2022-08-05T18:57:15.696Z,19.39
2022-08-05T19:00:02.941Z,19.24
2022-08-05T19:02:28.085Z,19.12
2022-08-05T19:05:01.344Z,19.16
2022-08-05T19:07:25.956Z,19.07
2022-08-05T19:09:58.744Z,19.18
2022-08-05T19:12:31.577Z,19.19
2022-08-05T19:15:02.738Z,19.08
2022-08-05T19:17:33.734Z,18.88
2022-08-05T19:20:08.327Z,18.80
2022-08-05T19:22:39.931Z,18.80
2022-08-05T19:25:10.958Z,18.81
2022-08-05T19:27:43.676Z,18.72
2022-08-05T19:30:15.175Z,18.69
2022-08-05T19:32:46.574Z,18.70
2022-08-05T19:35:17.181Z,18.74
2022-08-05T19:38:06.758Z,18.76
2022-08-05T19:40:24.344Z,18.56
2022-08-05T19:43:04.965Z,18.67
2022-08-05T19:45:25.664Z,18.62
2022-08-05T19:47:56.106Z,18.50
2022-08-05T19:50:26.896Z,18.52
2022-08-05T19:52:58.154Z,18.46
2022-08-05T19:56:13.642Z,18.45
2022-08-05T19:58:07.128Z,18.38
2022-08-05T20:00:34.371Z,18.50
2022-08-05T20:03:08.808Z,18.45
2022-08-05T20:05:43.174Z,18.34
2022-08-05T20:08:10.080Z,18.36
2022-08-05T20:10:43.277Z,18.40
2022-08-05T20:13:15.568Z,18.25
2022-08-05T20:15:51.961Z,18.21
2022-08-05T20:18:33.910Z,18.31
2022-08-05T20:20:50.308Z,18.28
2022-08-05T20:23:21.372Z,18.39
2022-08-05T20:25:52.318Z,18.27
2022-08-05T20:28:24.029Z,18.32
2022-08-05T20:30:54.561Z,18.38
2022-08-05T20:33:25.145Z,18.34
2022-08-05T20:35:58.642Z,18.25
2022-08-05T20:38:35.046Z,18.26
2022-08-05T20:41:04.676Z,18.18
2022-08-05T20:44:00.087Z,18.29
2022-08-05T20:46:10.275Z,18.27
2022-08-05T20:48:42.654Z,18.08
2022-08-05T20:51:13.592Z,17.99
2022-08-05T20:53:56.521Z,17.95
2022-08-05T20:56:18.070Z,18.01
2022-08-05T20:58:51.849Z,17.91
2022-08-05T21:01:26.122Z,17.97
2022-08-05T21:03:54.937Z,17.82
2022-08-05T21:06:28.153Z,17.79
2022-08-05T21:08:57.644Z,17.76
2022-08-05T21:12:07.703Z,17.85
2022-08-05T21:14:02.799Z,17.93
2022-08-05T21:16:33.527Z,17.88
2022-08-05T21:19:05.746Z,17.91
2022-08-05T21:21:39.861Z,18.05
2022-08-05T21:24:12.464Z,18.05
2022-08-05T21:26:44.917Z,18.01
2022-08-05T21:29:16.967Z,18.06
2022-08-05T21:31:46.549Z,18.02
2022-08-05T21:34:20.327Z,17.84
2022-08-05T21:36:52.581Z,17.90
2022-08-05T21:39:26.841Z,17.79
2022-08-05T21:42:01.653Z,17.80
2022-08-05T21:44:27.989Z,17.69
2022-08-05T21:46:58.763Z,17.68
2022-08-05T21:49:59.313Z,17.56
2022-08-05T21:52:15.869Z,17.78
2022-08-05T21:54:34.259Z,17.60
2022-08-05T21:57:29.531Z,17.49
2022-08-05T22:00:01.581Z,17.44
2022-08-05T22:02:08.907Z,17.36
2022-08-05T22:04:41.074Z,17.34
2022-08-05T22:07:12.019Z,17.38
2022-08-05T22:09:45.854Z,17.47
2022-08-05T22:12:14.992Z,17.41
2022-08-05T22:14:47.087Z,17.48
2022-08-05T22:17:19.385Z,17.33
2022-08-05T22:19:57.159Z,17.30
2022-08-05T22:22:27.577Z,17.32
2022-08-05T22:25:21.248Z,17.36
2022-08-05T22:28:09.781Z,17.30
2022-08-05T22:30:19.827Z,17.24
2022-08-05T22:32:50.528Z,17.14
2022-08-05T22:35:22.908Z,17.17
2022-08-05T22:37:58.011Z,17.02
2022-08-05T22:40:27.100Z,17.04
2022-08-05T22:42:58.488Z,17.10
2022-08-05T22:45:30.689Z,17.09
2022-08-05T22:48:01.594Z,17.06
2022-08-05T22:50:33.918Z,17.09
2022-08-05T22:53:09.739Z,16.95
2022-08-05T22:55:57.135Z,16.92
2022-08-05T22:58:13.750Z,16.92
2022-08-05T23:00:42.923Z,16.98
2022-08-05T23:03:15.521Z,16.86
2022-08-05T23:05:47.743Z,16.86
2022-08-05T23:08:18.724Z,16.68
2022-08-05T23:10:52.047Z,16.71
2022-08-05T23:13:21.383Z,16.59
2022-08-05T23:15:51.774Z,16.56
2022-08-05T23:18:22.869Z,16.38
2022-08-05T23:20:53.598Z,16.35
2022-08-05T23:23:25.710Z,16.34
2022-08-05T23:26:01.629Z,16.32
2022-08-05T23:28:35.406Z,16.20
2022-08-05T23:31:17.178Z,16.22
2022-08-05T23:34:05.217Z,16.15
2022-08-05T23:36:14.941Z,16.16
2022-08-05T23:38:49.369Z,16.12
2022-08-05T23:41:28.041Z,16.03
2022-08-05T23:44:05.906Z,16.05
2022-08-05T23:46:34.408Z,16.16
2022-08-05T23:49:16.499Z,15.93
2022-08-05T23:51:59.321Z,15.88
2022-08-05T23:54:36.407Z,15.98
2022-08-05T23:57:06.369Z,15.86
